createdAt,value
2023-04-27T00:01:16.111Z,96407.59
2023-04-27T00:03:42.778Z,96403.94
2023-04-27T00:06:12.365Z,96405.50
2023-04-27T00:08:38.949Z,96338.78
2023-04-27T00:11:06.007Z,96286.38
2023-04-27T00:13:32.624Z,96378.88
2023-04-27T00:16:03.388Z,96338.88
2023-04-27T00:18:31.159Z,96385.53
2023-04-27T00:20:57.987Z,96413.00
2023-04-27T00:23:24.628Z,96410.66
2023-04-27T00:25:51.173Z,96399.63
2023-04-27T00:28:17.842Z,96400.81
2023-04-27T00:30:45.199Z,96410.41
2023-04-27T00:33:11.841Z,96412.03
2023-04-27T00:35:38.396Z,96374.28
2023-04-27T00:38:04.939Z,96414.81
2023-04-27T00:40:31.894Z,96421.91
2023-04-27T00:42:58.500Z,96376.63
2023-04-27T00:45:25.090Z,96417.19
2023-04-27T00:47:52.066Z,96418.31
2023-04-27T00:50:27.519Z,96390.44
2023-04-27T00:52:54.522Z,96445.69
2023-04-27T00:55:21.174Z,96450.34
2023-04-27T00:57:47.716Z,96450.59
2023-04-27T01:00:14.678Z,96473.25
2023-04-27T01:02:42.556Z,96473.72
2023-04-27T01:05:10.239Z,96393.78
2023-04-27T01:07:41.024Z,96468.94
2023-04-27T01:10:08.456Z,96474.72
2023-04-27T01:12:35.244Z,96465.03
2023-04-27T01:15:01.879Z,96442.41
2023-04-27T01:17:28.497Z,96487.72
2023-04-27T01:19:56.710Z,96477.69
2023-04-27T01:22:23.394Z,96471.72
2023-04-27T01:24:49.987Z,96476.66
2023-04-27T01:27:16.524Z,96477.66
2023-04-27T01:29:44.577Z,96460.72
2023-04-27T01:32:12.506Z,96362.94
2023-04-27T01:34:39.060Z,96478.13
2023-04-27T01:37:05.663Z,96485.41
2023-04-27T01:39:32.401Z,96496.44
2023-04-27T01:41:58.992Z,96490.00
2023-04-27T01:44:25.644Z,96479.25
2023-04-27T01:46:52.229Z,96486.59
2023-04-27T01:49:18.887Z,96466.63
2023-04-27T01:51:45.455Z,96509.41
2023-04-27T01:54:12.046Z,96462.03
2023-04-27T01:56:38.612Z,96495.34
2023-04-27T01:59:05.271Z,96511.75
2023-04-27T02:01:31.942Z,96496.38
2023-04-27T02:03:58.739Z,96480.50
2023-04-27T02:06:25.470Z,96509.94
2023-04-27T02:08:52.135Z,96456.72
2023-04-27T02:11:18.760Z,96499.06
2023-04-27T02:13:45.697Z,96409.63
2023-04-27T02:16:12.382Z,96512.44
2023-04-27T02:18:39.024Z,96408.16
2023-04-27T02:21:10.755Z,96418.94
2023-04-27T02:23:37.559Z,96157.88
2023-04-27T02:26:05.041Z,96510.94
2023-04-27T02:28:32.383Z,96515.03
2023-04-27T02:30:59.371Z,96449.44
2023-04-27T02:33:26.014Z,96514.81
2023-04-27T02:35:52.645Z,96514.09
2023-04-27T02:38:19.273Z,96522.91
2023-04-27T02:40:46.006Z,96507.16
2023-04-27T02:43:12.645Z,96517.47
2023-04-27T02:45:39.260Z,96522.81
2023-04-27T02:48:06.321Z,96527.78
2023-04-27T02:50:32.927Z,96519.22
2023-04-27T02:52:59.899Z,96528.59
2023-04-27T02:55:27.648Z,96530.13
2023-04-27T02:57:54.349Z,96538.25
2023-04-27T03:00:20.985Z,96486.53
2023-04-27T03:02:47.735Z,96533.59
2023-04-27T03:05:14.491Z,96397.47
2023-04-27T03:07:41.207Z,96536.50
2023-04-27T03:10:08.186Z,96187.41
2023-04-27T03:12:34.860Z,96422.34
2023-04-27T03:15:01.548Z,96544.81
2023-04-27T03:17:28.577Z,96542.47
2023-04-27T03:19:55.494Z,96496.34
2023-04-27T03:22:22.131Z,96502.72
2023-04-27T03:24:48.694Z,96557.78
2023-04-27T03:27:15.286Z,96563.06
2023-04-27T03:29:41.884Z,96569.91
2023-04-27T03:32:08.556Z,96559.94
2023-04-27T03:34:35.435Z,96567.47
2023-04-27T03:37:02.016Z,96578.50
2023-04-27T03:39:28.610Z,96578.63
2023-04-27T03:41:55.133Z,96580.50
2023-04-27T03:44:21.721Z,96580.16
2023-04-27T03:46:48.337Z,96582.97
2023-04-27T03:49:15.024Z,96580.97
2023-04-27T03:51:42.482Z,96470.38
2023-04-27T03:54:10.108Z,96583.41
2023-04-27T03:56:37.144Z,96596.06
2023-04-27T03:59:06.936Z,96598.78
2023-04-27T04:01:37.265Z,96441.56
2023-04-27T04:04:04.029Z,96600.69
2023-04-27T04:06:31.210Z,96539.06
2023-04-27T04:08:58.383Z,96551.31
2023-04-27T04:11:25.022Z,96593.53
2023-04-27T04:13:51.705Z,96544.59
2023-04-27T04:16:18.432Z,96570.25
2023-04-27T04:18:45.085Z,96602.22
2023-04-27T04:21:11.705Z,96558.28
2023-04-27T04:23:41.133Z,96600.88
2023-04-27T04:26:08.869Z,96616.50
2023-04-27T04:28:35.797Z,96613.88
2023-04-27T04:31:02.831Z,96617.63
2023-04-27T04:33:29.482Z,96619.34
2023-04-27T04:35:56.042Z,96627.94
2023-04-27T04:38:23.478Z,96628.72
2023-04-27T04:40:51.177Z,96633.53
2023-04-27T04:43:17.854Z,96634.25
2023-04-27T04:45:44.413Z,96629.59
2023-04-27T04:48:11.490Z,96623.34
2023-04-27T04:50:39.498Z,96640.03
2023-04-27T04:53:06.583Z,96623.41
2023-04-27T04:55:33.281Z,96632.28
2023-04-27T04:57:59.896Z,96609.44
2023-04-27T05:00:26.630Z,96632.59
2023-04-27T05:02:53.505Z,96630.38
2023-04-27T05:05:20.579Z,96639.16
2023-04-27T05:07:47.116Z,96636.00
2023-04-27T05:10:13.724Z,96637.63
2023-04-27T05:12:40.317Z,96634.41
2023-04-27T05:15:07.350Z,96628.16
2023-04-27T05:17:33.967Z,96604.19
2023-04-27T05:20:00.955Z,96634.41
2023-04-27T05:22:27.511Z,96637.25
2023-04-27T05:24:54.112Z,96563.41
2023-04-27T05:27:20.748Z,96633.78
2023-04-27T05:29:47.295Z,96574.91
2023-04-27T05:32:13.834Z,96629.91
2023-04-27T05:34:41.177Z,96637.41
2023-04-27T05:37:07.793Z,96629.97
2023-04-27T05:39:34.586Z,96620.47
2023-04-27T05:42:02.728Z,96629.25
2023-04-27T05:44:29.509Z,96632.00
2023-04-27T05:46:56.510Z,96598.66
2023-04-27T05:49:23.605Z,96641.56
2023-04-27T05:51:50.284Z,96543.41
2023-04-27T05:54:16.887Z,96548.59
2023-04-27T05:56:43.494Z,96630.84
2023-04-27T05:59:10.264Z,96545.44
2023-04-27T06:01:36.961Z,96654.28
2023-04-27T06:04:04.170Z,96641.94
2023-04-27T06:06:34.250Z,96590.34
2023-04-27T06:09:00.935Z,96526.38
2023-04-27T06:11:27.604Z,96653.44
2023-04-27T06:13:54.341Z,96597.44
2023-04-27T06:16:21.476Z,96593.47
2023-04-27T06:18:50.237Z,96568.84
2023-04-27T06:21:16.835Z,96645.78
2023-04-27T06:23:43.437Z,96546.09
2023-04-27T06:26:10.089Z,96648.84
2023-04-27T06:28:36.697Z,96647.88
2023-04-27T06:31:03.467Z,96648.28
2023-04-27T06:33:30.052Z,96556.03
2023-04-27T06:35:56.655Z,96644.38
2023-04-27T06:38:23.538Z,96623.63
2023-04-27T06:40:53.297Z,96624.34
2023-04-27T06:43:19.952Z,96646.50
2023-04-27T06:45:46.671Z,96649.47
2023-04-27T06:48:13.493Z,96646.34
2023-04-27T06:50:40.567Z,96604.13
2023-04-27T06:53:07.308Z,96583.88
2023-04-27T06:55:34.363Z,96577.00
2023-04-27T06:58:01.036Z,96634.84
2023-04-27T07:00:27.687Z,96604.25
2023-04-27T07:02:54.383Z,96652.56
2023-04-27T07:05:21.207Z,96649.94
2023-04-27T07:07:47.855Z,96614.88
2023-04-27T07:10:14.503Z,96646.00
2023-04-27T07:12:42.487Z,96649.16
2023-04-27T07:15:09.912Z,96653.06
2023-04-27T07:17:36.818Z,96560.63
2023-04-27T07:20:06.140Z,96646.97
2023-04-27T07:22:33.682Z,96652.88
2023-04-27T07:25:00.594Z,96620.88
2023-04-27T07:27:27.523Z,96609.13
2023-04-27T07:29:54.802Z,96645.69
2023-04-27T07:32:22.786Z,96647.63
2023-04-27T07:34:53.976Z,96637.59
2023-04-27T07:37:22.241Z,96604.88
2023-04-27T07:39:50.444Z,96638.69
2023-04-27T07:42:17.086Z,96635.59
2023-04-27T07:44:43.775Z,96585.19
2023-04-27T07:47:10.789Z,96629.66
2023-04-27T07:49:37.742Z,96628.63
2023-04-27T07:52:04.820Z,96647.53
2023-04-27T07:54:31.680Z,96590.44
2023-04-27T07:56:58.371Z,96645.69
2023-04-27T07:59:24.991Z,96633.22
2023-04-27T08:01:52.171Z,96605.25
2023-04-27T08:04:18.921Z,96578.66
2023-04-27T08:06:47.027Z,96638.75
2023-04-27T08:09:14.242Z,96664.00
2023-04-27T08:11:41.229Z,96664.91
2023-04-27T08:14:13.472Z,96663.94
2023-04-27T08:16:44.061Z,96665.28
2023-04-27T08:19:11.648Z,96577.19
2023-04-27T08:21:39.223Z,96635.44
2023-04-27T08:24:07.083Z,96681.34
2023-04-27T08:26:35.273Z,96632.66
2023-04-27T08:29:11.723Z,96642.50
2023-04-27T08:31:46.701Z,96658.50
2023-04-27T08:34:13.447Z,96600.94
2023-04-27T08:36:40.094Z,96652.63
2023-04-27T08:39:07.876Z,96664.41
2023-04-27T08:41:34.491Z,96669.84
2023-04-27T08:44:01.139Z,96671.53
2023-04-27T08:46:27.899Z,96664.53
2023-04-27T08:48:55.145Z,96661.38
2023-04-27T08:51:22.748Z,96660.06
2023-04-27T08:53:52.088Z,96668.72
2023-04-27T08:56:20.017Z,96657.09
2023-04-27T08:58:46.688Z,96660.41
2023-04-27T09:01:13.397Z,96604.88
2023-04-27T09:03:40.091Z,96661.34
2023-04-27T09:06:07.472Z,96633.00
2023-04-27T09:08:47.621Z,96650.72
2023-04-27T09:11:16.301Z,96646.75
2023-04-27T09:13:45.487Z,96654.78
2023-04-27T09:16:16.318Z,96660.91
2023-04-27T09:18:43.740Z,96656.16
2023-04-27T09:21:10.699Z,96658.06
2023-04-27T09:23:39.337Z,96700.97
2023-04-27T09:26:10.833Z,96652.97
2023-04-27T09:28:41.338Z,96582.28
2023-04-27T09:31:09.584Z,96657.94
2023-04-27T09:33:36.396Z,96546.59
2023-04-27T09:36:05.720Z,96662.78
2023-04-27T09:38:33.275Z,96663.63
2023-04-27T09:41:00.435Z,96658.50
2023-04-27T09:43:28.816Z,96655.06
2023-04-27T09:45:56.277Z,96654.88
2023-04-27T09:48:24.062Z,96650.19
2023-04-27T09:50:52.062Z,96644.31
2023-04-27T09:53:21.078Z,96589.88
2023-04-27T09:55:59.292Z,96532.81
2023-04-27T09:58:37.044Z,96633.94
2023-04-27T10:01:10.910Z,96622.75
2023-04-27T10:04:09.000Z,96643.88
2023-04-27T10:06:53.119Z,96577.09
2023-04-27T10:09:26.322Z,96653.78
2023-04-27T10:11:55.111Z,96651.28
2023-04-27T10:14:23.872Z,96654.13
2023-04-27T10:16:58.682Z,96656.25
2023-04-27T10:19:26.000Z,96641.44
2023-04-27T10:22:03.433Z,96657.94
2023-04-27T10:24:37.991Z,96652.63
2023-04-27T10:27:06.945Z,96618.16
2023-04-27T10:29:51.510Z,96656.81
2023-04-27T10:32:26.077Z,96597.81
2023-04-27T10:35:04.139Z,96643.25
2023-04-27T10:37:41.505Z,96661.88
2023-04-27T10:40:10.388Z,96668.50
2023-04-27T10:42:36.999Z,96673.34
2023-04-27T10:45:04.252Z,96647.13
2023-04-27T10:47:42.886Z,96614.50
2023-04-27T10:50:14.408Z,96664.69
2023-04-27T10:52:44.596Z,96665.88
2023-04-27T10:55:20.254Z,96667.75
2023-04-27T10:57:49.171Z,96664.81
2023-04-27T11:00:37.724Z,96663.44
2023-04-27T11:03:12.607Z,96677.47
2023-04-27T11:05:39.373Z,96679.53
2023-04-27T11:08:07.733Z,96675.03
2023-04-27T11:10:37.760Z,96635.91
2023-04-27T11:13:15.740Z,96675.25
2023-04-27T11:16:04.665Z,96667.91
2023-04-27T11:18:33.720Z,96671.09
2023-04-27T11:21:15.263Z,96672.56
2023-04-27T11:23:42.856Z,96614.69
2023-04-27T11:26:29.695Z,96676.00
2023-04-27T11:29:12.510Z,96675.38
2023-04-27T11:31:47.681Z,96676.38
2023-04-27T11:34:19.484Z,96681.75
2023-04-27T11:37:14.356Z,96686.66
2023-04-27T11:39:45.386Z,96683.50
2023-04-27T11:42:18.556Z,96629.53
2023-04-27T11:44:58.889Z,96676.66
2023-04-27T11:47:27.832Z,96686.34
2023-04-27T11:49:56.854Z,96682.63
2023-04-27T11:52:29.309Z,96673.22
2023-04-27T11:54:58.919Z,96689.44
2023-04-27T11:57:30.056Z,96687.75
2023-04-27T12:00:00.116Z,96684.03
2023-04-27T12:02:28.424Z,96690.78
2023-04-27T12:04:55.601Z,96660.97
2023-04-27T12:07:22.266Z,96696.25
2023-04-27T12:09:50.013Z,96673.38
2023-04-27T12:12:22.403Z,96670.34
2023-04-27T12:14:50.085Z,96692.38
2023-04-27T12:17:17.092Z,96691.84
2023-04-27T12:19:43.869Z,96683.38
2023-04-27T12:22:10.986Z,96686.81
2023-04-27T12:24:37.654Z,96685.44
2023-04-27T12:27:05.078Z,96680.53
2023-04-27T12:29:34.459Z,96684.22
2023-04-27T12:32:01.173Z,96683.56
2023-04-27T12:34:28.587Z,96650.53
2023-04-27T12:36:55.268Z,96682.41
2023-04-27T12:39:26.251Z,96555.16
2023-04-27T12:41:53.896Z,96682.91
2023-04-27T12:44:21.476Z,96494.38
2023-04-27T12:46:48.682Z,96671.84
2023-04-27T12:49:15.857Z,96698.47
2023-04-27T12:51:42.633Z,96646.97
2023-04-27T12:54:10.364Z,96695.22
2023-04-27T12:56:37.240Z,96600.81
2023-04-27T12:59:04.452Z,96699.34
2023-04-27T13:01:31.750Z,96696.13
2023-04-27T13:04:03.268Z,96666.09
2023-04-27T13:06:31.280Z,96681.00
2023-04-27T13:08:59.026Z,96686.09
2023-04-27T13:11:26.713Z,96654.84
2023-04-27T13:13:54.891Z,96689.03
2023-04-27T13:16:22.800Z,96700.00
2023-04-27T13:18:52.044Z,96648.56
2023-04-27T13:21:19.307Z,96697.59
2023-04-27T13:23:47.057Z,96686.63
2023-04-27T13:26:15.812Z,96690.78
2023-04-27T13:28:42.503Z,96697.03
2023-04-27T13:31:09.199Z,96687.19
2023-04-27T13:33:39.949Z,96597.38
2023-04-27T13:36:06.894Z,96649.13
2023-04-27T13:38:33.488Z,96694.38
2023-04-27T13:41:00.169Z,96693.00
2023-04-27T13:43:27.194Z,96695.19
2023-04-27T13:45:55.714Z,96694.16
2023-04-27T13:48:24.101Z,96596.81
2023-04-27T13:50:51.242Z,96693.94
2023-04-27T13:53:17.908Z,96685.53
2023-04-27T13:55:44.838Z,96693.66
2023-04-27T13:58:13.224Z,96690.47
2023-04-27T14:00:39.899Z,96694.47
2023-04-27T14:03:08.948Z,96696.78
2023-04-27T14:05:35.848Z,96693.81
2023-04-27T14:08:02.475Z,96701.97
2023-04-27T14:10:30.415Z,96644.09
2023-04-27T14:12:57.142Z,96692.44
2023-04-27T14:15:23.817Z,96703.19
2023-04-27T14:17:50.498Z,96666.50
2023-04-27T14:20:17.147Z,96702.13
2023-04-27T14:22:43.737Z,96702.13
2023-04-27T14:25:10.661Z,96708.25
2023-04-27T14:27:37.366Z,96713.28
2023-04-27T14:30:04.472Z,96695.19
2023-04-27T14:32:31.230Z,96636.97
2023-04-27T14:34:57.871Z,96706.00
2023-04-27T14:37:24.581Z,96706.22
2023-04-27T14:39:51.131Z,96699.78
2023-04-27T14:42:17.728Z,96700.84
2023-04-27T14:44:44.372Z,96697.84
2023-04-27T14:47:11.006Z,96701.47
2023-04-27T14:49:38.102Z,96705.72
2023-04-27T14:52:06.509Z,96708.00
2023-04-27T14:54:33.134Z,96715.31
2023-04-27T14:57:01.105Z,96701.78
2023-04-27T14:59:27.800Z,96711.06
2023-04-27T15:01:54.504Z,96709.47
2023-04-27T15:04:21.437Z,96712.25
2023-04-27T15:06:48.091Z,96702.28
2023-04-27T15:09:14.905Z,96717.41
2023-04-27T15:11:41.721Z,96715.06
2023-04-27T15:14:08.702Z,96707.09
2023-04-27T15:16:35.560Z,96706.81
2023-04-27T15:19:02.414Z,96664.75
2023-04-27T15:21:30.380Z,96686.16
2023-04-27T15:23:57.215Z,96678.16
2023-04-27T15:26:23.840Z,96722.09
2023-04-27T15:28:50.751Z,96704.31
2023-04-27T15:31:17.447Z,96766.81
2023-04-27T15:33:44.076Z,96729.69
2023-04-27T15:36:11.152Z,96729.38
2023-04-27T15:38:37.778Z,96695.53
2023-04-27T15:41:04.377Z,96738.69
2023-04-27T15:43:30.978Z,96738.22
2023-04-27T15:45:57.570Z,96735.44
2023-04-27T15:48:25.204Z,96733.78
2023-04-27T15:50:51.735Z,96745.81
2023-04-27T15:53:18.434Z,96631.59
2023-04-27T15:55:44.997Z,96716.72
2023-04-27T15:58:11.605Z,96700.03
2023-04-27T16:00:38.498Z,96766.66
2023-04-27T16:03:09.402Z,96769.78
2023-04-27T16:05:37.416Z,96780.75
2023-04-27T16:08:04.356Z,96776.56
2023-04-27T16:10:31.030Z,96775.28
2023-04-27T16:12:57.628Z,96782.28
2023-04-27T16:15:24.264Z,96778.25
2023-04-27T16:17:50.919Z,96796.53
2023-04-27T16:20:17.538Z,96784.25
2023-04-27T16:22:44.203Z,96808.78
2023-04-27T16:25:11.297Z,96751.22
2023-04-27T16:27:38.734Z,96799.06
2023-04-27T16:30:06.815Z,96806.75
2023-04-27T16:32:35.304Z,96809.22
2023-04-27T16:35:02.367Z,96802.50
2023-04-27T16:37:28.968Z,96798.53
2023-04-27T16:39:59.206Z,96812.09
2023-04-27T16:42:25.796Z,96695.47
2023-04-27T16:44:52.369Z,96798.81
2023-04-27T16:47:19.023Z,96779.44
2023-04-27T16:49:45.768Z,96774.72
2023-04-27T16:52:12.664Z,96821.69
2023-04-27T16:54:39.214Z,96820.09
2023-04-27T16:57:07.749Z,96818.53
2023-04-27T16:59:34.668Z,96832.81
2023-04-27T17:02:12.519Z,96836.81
2023-04-27T17:04:48.227Z,96822.50
2023-04-27T17:07:15.067Z,96832.41
2023-04-27T17:09:41.763Z,96827.28
2023-04-27T17:12:12.272Z,96790.66
2023-04-27T17:14:39.582Z,96793.03
2023-04-27T17:17:06.740Z,96852.72
2023-04-27T17:19:33.426Z,96855.09
2023-04-27T17:22:00.076Z,96858.28
2023-04-27T17:24:26.963Z,96837.19
2023-04-27T17:26:53.535Z,96826.47
2023-04-27T17:29:20.234Z,96852.72
2023-04-27T17:31:46.935Z,96866.97
2023-04-27T17:34:13.744Z,96870.91
2023-04-27T17:36:40.381Z,96880.09
2023-04-27T17:39:07.283Z,96835.13
2023-04-27T17:41:36.223Z,96877.28
2023-04-27T17:44:04.020Z,96885.63
2023-04-27T17:46:30.730Z,96889.63
2023-04-27T17:48:57.567Z,96836.63
2023-04-27T17:51:24.105Z,96888.44
2023-04-27T17:53:50.754Z,96774.94
2023-04-27T17:56:17.257Z,96901.19
2023-04-27T17:58:44.213Z,96914.69
2023-04-27T18:01:11.759Z,96910.72
2023-04-27T18:03:38.632Z,96919.63
2023-04-27T18:06:05.577Z,96842.91
2023-04-27T18:08:32.211Z,96914.66
2023-04-27T18:10:58.828Z,96923.38
2023-04-27T18:13:27.099Z,96912.50
2023-04-27T18:15:53.685Z,96922.94
2023-04-27T18:18:23.256Z,96935.22
2023-04-27T18:20:51.738Z,96873.03
2023-04-27T18:23:18.325Z,96941.53
2023-04-27T18:25:44.988Z,96925.56
2023-04-27T18:28:11.728Z,96949.47
2023-04-27T18:30:38.901Z,96940.72
2023-04-27T18:33:05.671Z,96971.41
2023-04-27T18:35:32.469Z,96968.50
2023-04-27T18:37:59.125Z,96954.59
2023-04-27T18:40:26.297Z,96973.13
2023-04-27T18:42:53.364Z,96954.00
2023-04-27T18:45:20.332Z,96967.78
2023-04-27T18:47:46.946Z,96959.38
2023-04-27T18:50:13.636Z,96973.13
2023-04-27T18:52:41.385Z,96971.16
2023-04-27T18:55:08.788Z,96957.53
2023-04-27T18:57:35.573Z,96985.81
2023-04-27T19:00:05.941Z,96985.56
2023-04-27T19:02:33.123Z,96974.03
2023-04-27T19:05:11.399Z,96978.84
2023-04-27T19:07:40.415Z,96990.09
2023-04-27T19:10:08.006Z,96990.91
2023-04-27T19:12:34.758Z,97008.91
2023-04-27T19:15:01.553Z,96953.19
2023-04-27T19:17:28.434Z,97008.25
2023-04-27T19:19:55.362Z,97013.81
2023-04-27T19:22:22.155Z,97013.03
2023-04-27T19:24:48.952Z,97008.31
2023-04-27T19:27:15.931Z,97007.44
2023-04-27T19:29:56.510Z,97017.72
2023-04-27T19:32:27.865Z,97009.72
2023-04-27T19:34:56.466Z,97021.03
2023-04-27T19:37:24.495Z,97024.19
2023-04-27T19:39:51.364Z,97026.13
2023-04-27T19:42:19.688Z,97000.50
2023-04-27T19:44:46.749Z,97022.78
2023-04-27T19:47:13.525Z,97022.34
2023-04-27T19:49:40.403Z,97022.31
2023-04-27T19:52:07.729Z,96955.13
2023-04-27T19:54:36.326Z,96953.84
2023-04-27T19:57:04.040Z,97046.00
2023-04-27T19:59:30.815Z,97026.13
2023-04-27T20:01:57.729Z,97035.59
2023-04-27T20:04:24.855Z,97015.72
2023-04-27T20:06:52.088Z,97032.81
2023-04-27T20:09:18.836Z,96934.22
2023-04-27T20:11:45.686Z,97014.03
2023-04-27T20:14:12.968Z,96940.25
2023-04-27T20:16:39.812Z,97017.28
2023-04-27T20:19:06.618Z,96965.03
2023-04-27T20:21:33.782Z,97011.06
2023-04-27T20:24:00.652Z,97011.03
2023-04-27T20:26:27.544Z,97003.13
2023-04-27T20:28:54.168Z,97019.13
2023-04-27T20:31:21.208Z,97006.44
2023-04-27T20:33:47.831Z,97006.38
2023-04-27T20:36:18.220Z,96996.72
2023-04-27T20:38:46.313Z,97020.56
2023-04-27T20:41:13.006Z,97016.88
2023-04-27T20:43:40.137Z,97008.13
2023-04-27T20:46:16.539Z,97017.91
2023-04-27T20:48:43.179Z,97012.19
2023-04-27T20:51:09.737Z,97022.63
2023-04-27T20:53:36.340Z,96970.78
2023-04-27T20:56:03.838Z,97030.56
2023-04-27T20:58:30.403Z,96956.44
2023-04-27T21:00:57.064Z,97032.25
2023-04-27T21:03:23.923Z,97028.34
2023-04-27T21:05:50.824Z,97018.13
2023-04-27T21:08:17.956Z,97028.47
2023-04-27T21:10:44.644Z,97028.53
2023-04-27T21:13:11.361Z,97012.50
2023-04-27T21:15:38.551Z,96992.50
2023-04-27T21:18:07.897Z,97038.06
2023-04-27T21:20:36.208Z,97030.91
2023-04-27T21:23:02.953Z,97034.94
2023-04-27T21:25:29.635Z,97030.91
2023-04-27T21:27:56.194Z,97032.50
2023-04-27T21:30:22.859Z,97035.25
2023-04-27T21:32:49.674Z,97042.03
2023-04-27T21:35:16.248Z,97036.50
2023-04-27T21:37:42.825Z,97034.97
2023-04-27T21:40:09.736Z,97038.03
2023-04-27T21:42:36.368Z,97034.31
2023-04-27T21:45:04.462Z,97031.47
2023-04-27T21:47:31.232Z,97039.34
2023-04-27T21:49:57.986Z,97046.47
2023-04-27T21:52:24.687Z,97039.56
2023-04-27T21:54:51.422Z,97038.47
2023-04-27T21:57:19.908Z,97045.69
2023-04-27T21:59:46.768Z,97031.91
2023-04-27T22:02:13.630Z,97036.03
2023-04-27T22:04:40.367Z,97034.34
2023-04-27T22:07:10.412Z,97039.56
2023-04-27T22:09:37.005Z,96980.31
2023-04-27T22:12:04.213Z,97032.00
2023-04-27T22:14:31.490Z,96983.75
2023-04-27T22:16:58.384Z,97026.16
2023-04-27T22:19:25.446Z,97034.81
2023-04-27T22:21:52.133Z,96943.53
2023-04-27T22:24:18.725Z,97022.28
2023-04-27T22:26:45.752Z,97020.34
2023-04-27T22:29:12.340Z,96983.28
2023-04-27T22:31:39.302Z,96945.38
2023-04-27T22:34:06.297Z,97032.94
2023-04-27T22:36:33.505Z,97005.78
2023-04-27T22:39:00.401Z,97059.84
2023-04-27T22:41:26.994Z,97038.44
2023-04-27T22:43:53.607Z,97031.25
2023-04-27T22:46:20.221Z,97027.38
2023-04-27T22:48:47.373Z,96917.09
2023-04-27T22:51:14.079Z,97015.91
2023-04-27T22:53:40.690Z,97022.34
2023-04-27T22:56:07.548Z,97021.22
2023-04-27T22:58:35.359Z,97019.94
2023-04-27T23:01:02.405Z,96958.81
2023-04-27T23:03:29.172Z,96912.72
2023-04-27T23:05:55.847Z,97011.63
2023-04-27T23:08:25.270Z,97019.69
2023-04-27T23:10:54.980Z,96938.28
2023-04-27T23:13:21.550Z,97025.31
2023-04-27T23:15:48.353Z,97019.75
2023-04-27T23:18:14.989Z,97020.50
2023-04-27T23:20:41.606Z,96928.41
2023-04-27T23:23:08.210Z,97003.22
2023-04-27T23:25:34.806Z,97021.69
2023-04-27T23:28:01.458Z,97013.91
2023-04-27T23:30:28.110Z,96963.19
2023-04-27T23:32:54.724Z,97041.84
2023-04-27T23:35:21.486Z,96876.50
2023-04-27T23:37:48.131Z,96982.59
2023-04-27T23:40:14.839Z,97005.81
2023-04-27T23:42:41.597Z,97015.56
2023-04-27T23:45:08.538Z,97022.53
2023-04-27T23:47:35.113Z,97020.97
2023-04-27T23:50:03.017Z,97026.41
2023-04-27T23:52:29.714Z,97027.69
2023-04-27T23:54:58.015Z,97025.31
2023-04-27T23:57:24.611Z,97020.13
2023-04-27T23:59:51.171Z,96967.47
